Time;durP1;ratioP1;P1;durP2;ratioP2;P2;SDS_P1;SDS_P2;PMS_P1;PMS_P2;Temp;Humidity;BMP_temperature;BMP_pressure;BME280_temperature;BME280_humidity;BME280_pressure;Samples;Min_cycle;Max_cycle;Signal;HPM_P1;HPM_P2
2022/05/01 00:02:05;;;;;;;15.52;14.13;;;;;;;11.91;76.67;99892.66;4955838;28;20683;-77
2022/05/01 00:04:31;;;;;;;15.70;14.15;;;;;;;11.99;75.79;99890.38;4955606;28;20206;-78
2022/05/01 00:06:58;;;;;;;16.63;15.10;;;;;;;12.00;77.19;99892.13;4955431;28;20205;-78
2022/05/01 00:09:26;;;;;;;16.13;14.43;;;;;;;11.78;79.61;99889.81;4955789;28;20208;-78
2022/05/01 00:11:53;;;;;;;15.57;14.02;;;;;;;11.64;81.07;99892.41;4955680;28;20524;-76
2022/05/01 00:14:20;;;;;;;16.20;14.65;;;;;;;11.52;81.58;99893.13;4948467;28;20209;-78
2022/05/01 00:16:48;;;;;;;16.33;14.73;;;;;;;11.46;81.91;99888.94;4935818;29;20243;-76
2022/05/01 00:19:14;;;;;;;15.38;13.80;;;;;;;11.46;81.05;99881.75;4936291;29;20221;-77
2022/05/01 00:21:41;;;;;;;16.60;14.95;;;;;;;11.46;81.11;99883.56;4935679;29;20194;-78
2022/05/01 00:24:08;;;;;;;16.15;14.65;;;;;;;11.36;81.54;99885.91;4935735;29;20189;-76
2022/05/01 00:26:36;;;;;;;17.67;15.68;;;;;;;11.30;82.35;99886.25;4935494;29;20240;-78
2022/05/01 00:29:03;;;;;;;16.50;14.65;;;;;;;11.26;83.73;99890.06;4942189;29;20199;-77
2022/05/01 00:31:30;;;;;;;16.13;14.63;;;;;;;11.20;86.23;99890.44;4955051;28;20184;-78
2022/05/01 00:36:41;;;;;;;17.20;15.32;;;;;;;10.86;92.44;99886.91;4954826;29;20312;-78
2022/05/01 00:39:09;;;;;;;17.35;15.55;;;;;;;10.92;93.70;99891.97;4955064;28;20185;-77
2022/05/01 00:41:39;;;;;;;16.83;15.13;;;;;;;10.96;94.74;99893.53;4955098;28;20205;-79
2022/05/01 00:44:08;;;;;;;16.20;14.65;;;;;;;10.95;95.26;99890.94;4954249;29;20240;-78
2022/05/01 00:46:37;;;;;;;16.20;14.70;;;;;;;10.74;98.10;99895.66;4954860;28;20232;-78
2022/05/01 00:49:06;;;;;;;16.30;14.57;;;;;;;10.81;98.26;99891.69;4954695;28;20584;-77
2022/05/01 00:51:35;;;;;;;16.80;15.18;;;;;;;10.69;100.00;99900.41;4954914;28;20612;-78
2022/05/01 00:54:07;;;;;;;18.02;14.95;;;;;;;10.50;100.00;99896.03;4955181;28;20208;-78
2022/05/01 00:56:34;;;;;;;18.17;16.27;;;;;;;10.47;100.00;99896.19;4954868;28;20614;-76
2022/05/01 00:59:03;;;;;;;17.38;15.55;;;;;;;10.55;100.00;99890.38;4955026;28;20188;-78
2022/05/01 01:01:29;;;;;;;17.42;15.57;;;;;;;10.33;100.00;99890.66;4954530;28;20207;-79
2022/05/01 01:03:56;;;;;;;18.52;16.15;;;;;;;10.28;100.00;99893.53;4954712;28;20181;-77
2022/05/01 01:06:22;;;;;;;19.40;16.20;;;;;;;10.17;100.00;99904.84;4954431;28;20228;-77
2022/05/01 01:08:49;;;;;;;18.88;14.88;;;;;;;9.98;100.00;99906.78;4954991;28;20189;-77
2022/05/01 01:11:16;;;;;;;16.45;14.65;;;;;;;9.77;100.00;99901.53;4954787;28;20300;-79
2022/05/01 01:13:43;;;;;;;19.00;16.25;;;;;;;9.64;100.00;99905.78;4954740;28;20634;-77
2022/05/01 01:16:11;;;;;;;17.58;14.98;;;;;;;9.48;100.00;99902.97;4954047;28;20560;-76
2022/05/01 01:18:39;;;;;;;17.92;15.63;;;;;;;9.27;100.00;99896.81;4953981;28;20547;-77
2022/05/01 01:21:09;;;;;;;17.02;15.35;;;;;;;9.10;100.00;99894.06;4954319;28;20297;-77
2022/05/01 01:23:36;;;;;;;17.83;16.10;;;;;;;9.08;100.00;99893.25;4954295;28;20212;-78
2022/05/01 01:26:04;;;;;;;17.88;16.08;;;;;;;8.91;100.00;99888.66;4954308;28;20212;-78
2022/05/01 01:28:32;;;;;;;17.33;15.63;;;;;;;8.86;100.00;99888.00;4953978;28;20192;-77
2022/05/01 01:33:44;;;;;;;17.73;15.88;;;;;;;9.09;100.00;99886.91;4953769;29;20286;-78
2022/05/01 01:36:13;;;;;;;17.88;16.17;;;;;;;9.22;100.00;99889.91;4954616;28;20202;-78
2022/05/01 01:38:40;;;;;;;18.65;16.75;;;;;;;9.55;100.00;99890.09;4954064;28;20196;-78
2022/05/01 01:41:10;;;;;;;16.58;14.98;;;;;;;9.52;100.00;99884.84;4954118;28;20208;-76
2022/05/01 01:43:38;;;;;;;19.48;16.10;;;;;;;9.54;100.00;99893.72;4954574;28;20200;-77
2022/05/01 01:46:05;;;;;;;17.35;15.65;;;;;;;9.50;100.00;99886.78;4953775;29;20255;-78
2022/05/01 01:48:32;;;;;;;17.80;16.20;;;;;;;9.41;100.00;99888.09;4954245;28;20249;-78
2022/05/01 01:51:01;;;;;;;18.00;16.30;;;;;;;9.30;100.00;99888.59;4954077;28;20214;-78
2022/05/01 01:53:31;;;;;;;17.88;16.08;;;;;;;9.13;100.00;99884.00;4954060;28;20192;-78
2022/05/01 01:55:58;;;;;;;18.55;16.75;;;;;;;9.02;100.00;99888.16;4953910;28;20197;-78
2022/05/01 01:58:25;;;;;;;16.50;15.00;;;;;;;9.29;100.00;99888.66;4954201;28;20214;-77
2022/05/01 02:00:52;;;;;;;18.00;16.10;;;;;;;9.51;100.00;99894.75;4954334;29;20617;-77
2022/05/01 02:03:19;;;;;;;18.60;16.58;;;;;;;9.40;100.00;99889.00;4954784;28;20645;-78
2022/05/01 02:05:47;;;;;;;19.23;17.33;;;;;;;9.43;100.00;99885.31;4954149;28;20235;-78
2022/05/01 02:08:14;;;;;;;18.50;16.70;;;;;;;9.54;100.00;99893.72;4955059;28;20280;-78
2022/05/01 02:10:44;;;;;;;20.08;16.38;;;;;;;9.70;100.00;99892.03;4954488;28;20250;-79
2022/05/01 02:13:11;;;;;;;18.95;16.95;;;;;;;9.62;100.00;99880.78;4956575;28;20634;-78
2022/05/01 02:15:38;;;;;;;15.85;14.25;;;;;;;9.58;100.00;99877.34;4957717;28;20204;-78
2022/05/01 02:18:06;;;;;;;22.17;16.45;;;;;;;9.60;100.00;99880.84;4957577;28;20287;-77
2022/05/01 02:23:15;;;;;;;16.83;15.27;;;;;;;9.77;100.00;99882.69;4957573;29;20227;-77
2022/05/01 02:25:43;;;;;;;18.30;16.50;;;;;;;9.73;100.00;99877.56;4956962;28;20215;-78
2022/05/01 02:28:10;;;;;;;18.20;16.08;;;;;;;9.78;100.00;99873.66;4958220;28;20299;-78
2022/05/01 02:30:37;;;;;;;16.33;14.82;;;;;;;9.75;100.00;99871.16;4957626;28;20267;-78
2022/05/01 02:33:06;;;;;;;17.95;16.15;;;;;;;9.80;99.66;99869.09;4958698;28;20199;-78
2022/05/01 02:35:32;;;;;;;17.48;15.82;;;;;;;9.67;100.00;99862.59;4958330;28;20215;-78
2022/05/01 02:37:59;;;;;;;17.50;15.70;;;;;;;9.59;100.00;99871.03;4956715;28;20285;-78
2022/05/01 02:40:26;;;;;;;17.75;15.90;;;;;;;9.74;100.00;99874.78;4958097;28;20204;-78
2022/05/01 02:42:53;;;;;;;17.25;15.55;;;;;;;9.57;100.00;99867.56;4958666;28;20315;-78
2022/05/01 02:45:20;;;;;;;17.50;15.88;;;;;;;9.54;100.00;99859.66;4957568;28;20200;-77
2022/05/01 02:47:47;;;;;;;18.10;16.30;;;;;;;9.63;100.00;99854.75;4957691;28;20236;-78
2022/05/01 02:50:13;;;;;;;19.05;16.27;;;;;;;9.63;100.00;99854.75;4958040;28;20191;-77
2022/05/01 02:52:40;;;;;;;17.90;16.10;;;;;;;9.68;100.00;99853.59;4957343;28;20208;-78
2022/05/01 02:55:07;;;;;;;21.73;16.73;;;;;;;9.74;100.00;99847.00;4957126;29;20199;-76
2022/05/01 02:57:34;;;;;;;17.83;15.95;;;;;;;9.91;100.00;99860.47;4956689;28;20192;-78
2022/05/01 03:00:04;;;;;;;19.02;15.52;;;;;;;10.14;100.00;99847.66;4957276;28;20579;-77
2022/05/01 03:02:31;;;;;;;19.38;17.35;;;;;;;10.12;100.00;99860.31;4956875;28;20189;-78
2022/05/01 03:04:58;;;;;;;19.05;16.05;;;;;;;10.18;100.00;99860.88;4956534;28;20221;-78
2022/05/01 03:07:24;;;;;;;19.40;17.33;;;;;;;10.16;99.73;99860.09;4957055;28;20518;-76
2022/05/01 03:09:52;;;;;;;19.13;17.35;;;;;;;10.17;100.00;99861.81;4957001;28;20189;-77
2022/05/01 03:12:21;;;;;;;21.65;17.73;;;;;;;10.33;99.21;99851.13;4957035;28;20288;-78
2022/05/01 03:14:49;;;;;;;22.35;17.25;;;;;;;10.13;99.39;99846.78;4956694;28;20555;-77
2022/05/01 03:17:17;;;;;;;18.60;16.63;;;;;;;9.93;100.00;99861.28;4956829;28;20240;-78
2022/05/01 03:22:27;;;;;;;18.67;16.83;;;;;;;10.06;100.00;99852.56;4956699;29;20192;-78
2022/05/01 03:24:54;;;;;;;20.80;17.33;;;;;;;9.91;100.00;99854.25;4955548;28;20271;-77
2022/05/01 03:27:21;;;;;;;17.90;16.05;;;;;;;9.93;100.00;99855.03;4956391;28;20225;-76
2022/05/01 03:30:15;;;;;;;19.30;17.30;;;;;;;9.83;100.00;99851.91;4955463;28;20191;-76
2022/05/01 03:32:36;;;;;;;18.70;16.80;;;;;;;9.97;100.00;99846.72;4956455;29;20659;-77
2022/05/01 03:35:02;;;;;;;19.50;17.42;;;;;;;10.17;99.27;99834.91;4956112;28;20189;-78
2022/05/01 03:37:29;;;;;;;19.70;17.70;;;;;;;10.27;97.69;99839.81;4956964;28;20199;-77
2022/05/01 03:39:56;;;;;;;18.45;16.65;;;;;;;10.14;98.11;99842.28;4957132;28;20219;-78
2022/05/01 03:42:22;;;;;;;23.52;17.88;;;;;;;10.15;98.05;99847.59;4957036;28;20187;-77
2022/05/01 03:44:49;;;;;;;21.92;17.73;;;;;;;9.98;99.43;99848.44;4956716;28;20687;-77
2022/05/01 03:47:15;;;;;;;20.33;17.52;;;;;;;9.84;100.00;99842.06;4956618;28;20967;-77
2022/05/01 03:49:43;;;;;;;21.83;18.27;;;;;;;9.72;100.00;99838.16;4955817;28;20228;-79
2022/05/01 03:52:10;;;;;;;19.38;17.35;;;;;;;9.91;100.00;99843.47;4955765;28;20203;-78
2022/05/01 03:54:36;;;;;;;20.20;18.17;;;;;;;10.02;100.00;99843.81;4956467;28;20189;-78
2022/05/01 03:57:04;;;;;;;19.98;17.75;;;;;;;10.18;99.22;99839.34;4955751;28;20188;-76
2022/05/01 03:59:30;;;;;;;19.40;17.30;;;;;;;10.22;98.91;99843.63;4955921;28;20552;-77
2022/05/01 04:01:57;;;;;;;22.73;17.85;;;;;;;10.36;98.41;99837.53;4956044;28;20600;-77
2022/05/01 04:04:23;;;;;;;19.65;17.65;;;;;;;10.28;98.30;99842.41;4955948;28;20638;-78
2022/05/01 04:06:51;;;;;;;20.77;18.67;;;;;;;10.34;98.36;99841.25;4955236;28;20276;-77
2022/05/01 04:09:21;;;;;;;20.25;18.10;;;;;;;10.40;97.09;99838.22;4956321;28;20540;-77
2022/05/01 04:11:47;;;;;;;18.65;16.80;;;;;;;10.44;96.50;99837.09;4950540;29;20591;-78
2022/05/01 04:14:15;;;;;;;20.83;17.63;;;;;;;10.41;96.23;99839.97;4949823;29;20642;-79
2022/05/01 04:16:45;;;;;;;18.50;16.55;;;;;;;10.47;95.71;99844.16;4959481;28;20766;-77
2022/05/01 04:19:18;;;;;;;20.17;17.92;;;;;;;10.28;96.30;99839.72;4960428;28;20640;-78
2022/05/01 04:21:51;;;;;;;20.42;17.65;;;;;;;10.29;97.24;99841.50;4959788;28;20212;-77
2022/05/01 04:24:19;;;;;;;19.52;17.52;;;;;;;10.14;98.52;99845.84;4959105;28;20272;-77
2022/05/01 04:26:46;;;;;;;21.30;18.33;;;;;;;10.00;100.00;99838.47;4956105;28;20219;-78
2022/05/01 04:31:57;;;;;;;20.55;17.95;;;;;;;10.07;99.55;99835.47;4956214;29;20195;-78
2022/05/01 04:34:23;;;;;;;23.17;17.77;;;;;;;9.77;100.00;99845.06;4956399;28;20283;-77
2022/05/01 04:36:50;;;;;;;19.58;17.67;;;;;;;9.72;100.00;99839.06;4955620;28;20200;-77
2022/05/01 04:39:17;;;;;;;21.25;18.13;;;;;;;9.94;100.00;99844.19;4956169;28;20217;-78
2022/05/01 04:41:45;;;;;;;22.38;19.98;;;;;;;9.76;100.00;99840.59;4955312;28;20279;-77
2022/05/01 04:44:12;;;;;;;21.55;19.25;;;;;;;9.94;100.00;99841.47;4956130;28;20648;-78
2022/05/01 04:46:38;;;;;;;20.92;18.58;;;;;;;10.09;99.61;99838.97;4955811;28;20209;-77
2022/05/01 04:49:05;;;;;;;20.20;18.10;;;;;;;10.17;98.84;99842.09;4956739;28;20202;-77
2022/05/01 04:51:31;;;;;;;21.55;19.42;;;;;;;10.15;98.95;99841.31;4955948;28;20205;-79
2022/05/01 04:53:58;;;;;;;23.30;19.80;;;;;;;10.03;99.40;99843.69;4954226;28;20622;-79
2022/05/01 04:59:10;;;;;;;24.85;18.83;;;;;;;10.03;98.29;99849.06;4954664;29;20258;-79
2022/05/01 05:01:37;;;;;;;22.45;18.08;;;;;;;10.16;96.25;99843.94;4954110;28;20188;-79
2022/05/01 05:04:04;;;;;;;20.85;18.75;;;;;;;10.12;96.33;99841.50;4954774;28;20566;-78
2022/05/01 05:06:31;;;;;;;22.63;18.25;;;;;;;9.93;97.54;99836.22;4953984;29;20220;-79
2022/05/01 05:11:42;;;;;;;20.88;18.67;;;;;;;9.74;99.37;99850.56;4936314;29;20304;-79
2022/05/01 05:14:10;;;;;;;21.33;19.13;;;;;;;9.96;96.98;99838.72;4955098;29;20216;-80
2022/05/01 05:16:37;;;;;;;20.17;18.05;;;;;;;9.98;95.03;99848.44;4954526;28;20239;-77
2022/05/01 05:19:04;;;;;;;20.30;17.95;;;;;;;9.85;96.32;99855.41;4954385;28;20280;-79
2022/05/01 05:21:30;;;;;;;22.08;19.52;;;;;;;9.92;96.41;99859.53;4953454;28;20204;-77
2022/05/01 05:23:57;;;;;;;21.48;19.17;;;;;;;9.73;96.45;99846.16;4954272;28;20196;-78
2022/05/01 05:26:23;;;;;;;20.23;18.08;;;;;;;9.69;98.32;99858.00;4955247;28;20216;-77
2022/05/01 05:28:50;;;;;;;20.75;17.75;;;;;;;9.87;96.83;99855.34;4953786;28;20204;-77
2022/05/01 05:31:18;;;;;;;20.88;18.67;;;;;;;10.30;92.66;99845.94;4954724;28;20649;-77
2022/05/01 05:33:44;;;;;;;18.70;16.13;;;;;;;10.56;89.25;99849.94;4954657;28;20209;-78
2022/05/01 05:36:11;;;;;;;19.17;17.20;;;;;;;10.72;87.80;99854.47;4954340;28;20232;-77
2022/05/01 05:38:38;;;;;;;19.02;17.08;;;;;;;10.90;86.94;99861.56;4954405;28;20196;-78
2022/05/01 05:41:05;;;;;;;19.90;18.10;;;;;;;10.95;86.18;99859.47;4954693;28;20200;-77
2022/05/01 05:43:32;;;;;;;23.65;17.83;;;;;;;11.16;84.33;99867.31;4954472;28;20632;-78
2022/05/01 05:45:59;;;;;;;18.77;16.40;;;;;;;11.29;83.40;99862.97;4954299;28;20211;-77
2022/05/01 05:48:26;;;;;;;18.95;16.63;;;;;;;11.43;82.51;99864.88;4957055;28;20205;-77
2022/05/01 05:50:53;;;;;;;23.05;19.40;;;;;;;11.32;83.92;99868.16;4957175;28;20251;-78
2022/05/01 05:53:21;;;;;;;19.90;17.60;;;;;;;11.11;84.61;99864.00;4956609;28;20663;-78
2022/05/01 05:55:48;;;;;;;18.55;16.63;;;;;;;11.04;85.41;99860.78;4938786;29;20633;-78
2022/05/01 05:58:15;;;;;;;20.27;17.50;;;;;;;11.20;84.75;99863.47;4946407;29;20560;-79
2022/05/01 06:00:41;;;;;;;19.60;17.60;;;;;;;11.29;83.85;99868.34;4957552;28;20200;-79
2022/05/01 06:03:08;;;;;;;19.13;16.35;;;;;;;11.57;82.49;99864.06;4957429;28;20189;-79
2022/05/01 06:05:36;;;;;;;17.80;16.17;;;;;;;11.64;81.25;99862.75;4957447;28;20200;-79
2022/05/01 06:08:02;;;;;;;19.30;17.40;;;;;;;11.79;80.86;99863.69;4957442;28;20216;-77
2022/05/01 06:10:29;;;;;;;18.73;16.65;;;;;;;11.57;81.95;99873.00;4957552;28;20535;-79
2022/05/01 06:12:56;;;;;;;19.88;16.33;;;;;;;11.58;81.13;99865.81;4957571;28;20200;-79
2022/05/01 06:15:23;;;;;;;19.73;17.70;;;;;;;11.45;81.59;99874.59;4957471;28;20189;-78
2022/05/01 06:17:51;;;;;;;19.70;17.58;;;;;;;10.85;86.54;99882.47;4957175;28;20243;-78
2022/05/01 06:20:18;;;;;;;19.85;17.88;;;;;;;11.05;85.37;99871.44;4957046;28;20193;-78
2022/05/01 06:22:46;;;;;;;19.85;17.77;;;;;;;11.49;84.05;99872.63;4957041;28;20191;-79
2022/05/01 06:25:12;;;;;;;19.23;17.27;;;;;;;11.40;82.02;99871.31;4957338;28;20663;-78
2022/05/01 06:27:39;;;;;;;19.65;17.55;;;;;;;11.35;83.10;99870.72;4957160;28;20208;-79
2022/05/01 06:30:07;;;;;;;24.20;16.85;;;;;;;11.35;82.52;99870.72;4957313;28;20185;-79
2022/05/01 06:32:34;;;;;;;19.40;17.33;;;;;;;11.15;84.21;99871.81;4957103;28;20227;-79
2022/05/01 06:35:01;;;;;;;19.33;17.52;;;;;;;11.48;81.75;99866.31;4956705;28;20196;-79
2022/05/01 06:37:28;;;;;;;18.88;16.85;;;;;;;11.69;80.62;99863.38;4957093;28;20200;-79
2022/05/01 06:39:56;;;;;;;19.27;17.23;;;;;;;11.78;79.71;99867.31;4957029;28;20204;-79
2022/05/01 06:42:22;;;;;;;19.83;17.85;;;;;;;11.46;81.27;99873.66;4956593;28;20189;-78
2022/05/01 06:44:49;;;;;;;20.33;17.77;;;;;;;11.26;83.23;99868.50;4956421;28;20189;-78
2022/05/01 06:47:15;;;;;;;19.88;17.88;;;;;;;11.33;82.67;99866.34;4956802;28;20234;-78
2022/05/01 06:49:42;;;;;;;21.23;17.75;;;;;;;11.46;82.41;99868.25;4956883;28;20199;-78
2022/05/01 06:52:09;;;;;;;20.33;17.52;;;;;;;11.66;81.76;99859.00;4957085;28;20207;-78
2022/05/01 06:54:35;;;;;;;19.65;17.65;;;;;;;11.94;79.86;99870.91;4956878;28;20639;-79
2022/05/01 06:57:04;;;;;;;19.58;17.58;;;;;;;12.11;78.54;99856.41;4956875;28;20216;-77
2022/05/01 06:59:30;;;;;;;17.30;15.50;;;;;;;12.19;78.37;99862.22;4956674;28;20657;-79
2022/05/01 07:01:57;;;;;;;20.95;16.75;;;;;;;12.38;77.35;99861.09;4957037;28;20289;-78
2022/05/01 07:04:23;;;;;;;17.50;15.50;;;;;;;12.55;75.84;99862.72;4956759;28;20211;-79
2022/05/01 07:06:50;;;;;;;17.95;16.08;;;;;;;12.66;74.10;99854.81;4956282;28;20273;-79
2022/05/01 07:09:16;;;;;;;18.25;15.75;;;;;;;12.67;73.49;99848.47;4956300;28;20211;-79
2022/05/01 07:11:43;;;;;;;18.15;16.25;;;;;;;12.68;73.62;99852.91;4956947;28;20287;-78
2022/05/01 07:14:11;;;;;;;17.42;15.00;;;;;;;12.82;73.49;99857.41;4956719;28;20524;-78
2022/05/01 07:16:37;;;;;;;16.77;15.07;;;;;;;12.79;73.27;99854.94;4954900;28;20703;-79
2022/05/01 07:19:04;;;;;;;17.52;14.60;;;;;;;12.94;72.16;99862.94;4956743;28;20190;-78
2022/05/01 07:21:31;;;;;;;16.85;15.15;;;;;;;12.93;71.74;99855.81;4956650;28;20218;-79
2022/05/01 07:23:57;;;;;;;17.00;15.30;;;;;;;13.15;70.69;99859.81;4955884;28;20628;-77
2022/05/01 07:26:25;;;;;;;15.77;13.70;;;;;;;13.39;69.27;99857.38;4952351;28;20229;-79
2022/05/01 07:28:52;;;;;;;16.10;13.48;;;;;;;13.23;68.66;99862.00;4942160;29;20743;-78
2022/05/01 07:31:20;;;;;;;13.85;12.45;;;;;;;13.30;68.44;99858.00;4955403;28;20204;-78
2022/05/01 07:33:47;;;;;;;13.77;12.45;;;;;;;13.38;66.55;99863.75;4955196;28;20223;-79
2022/05/01 07:36:13;;;;;;;14.98;13.35;;;;;;;12.92;68.90;99856.75;4955452;28;20197;-77
2022/05/01 07:38:40;;;;;;;13.20;11.80;;;;;;;13.11;67.75;99851.06;4955649;28;20198;-78
2022/05/01 07:41:07;;;;;;;13.90;12.50;;;;;;;13.24;67.05;99848.41;4956614;28;20210;-77
2022/05/01 07:43:36;;;;;;;14.38;11.90;;;;;;;13.30;66.33;99842.63;4957110;28;20202;-79
2022/05/01 07:46:02;;;;;;;13.93;12.48;;;;;;;13.35;66.45;99850.44;4957691;28;20262;-79
2022/05/01 07:48:30;;;;;;;13.98;12.32;;;;;;;13.32;65.76;99850.66;4958163;28;20218;-77
2022/05/01 07:50:57;;;;;;;15.15;13.15;;;;;;;13.62;64.80;99850.44;4955438;28;20289;-79
2022/05/01 07:53:25;;;;;;;14.93;11.45;;;;;;;13.78;63.86;99853.00;4956246;28;20193;-77
2022/05/01 07:55:52;;;;;;;16.17;11.70;;;;;;;13.75;63.68;99850.50;4956040;28;20223;-78
2022/05/01 07:58:20;;;;;;;15.68;12.60;;;;;;;13.73;63.94;99852.44;4956915;28;20191;-77
2022/05/01 08:00:47;;;;;;;16.25;11.77;;;;;;;13.80;63.69;99851.06;4954895;28;20209;-78
2022/05/01 08:05:59;;;;;;;14.20;12.70;;;;;;;13.68;64.73;99858.16;4935817;29;20190;-79
2022/05/01 08:08:26;;;;;;;36.08;25.42;;;;;;;14.11;62.49;99849.84;4935550;29;20218;-78
2022/05/01 08:10:53;;;;;;;25.17;18.38;;;;;;;13.94;62.93;99848.28;4938927;29;20231;-78
2022/05/01 08:13:19;;;;;;;22.98;17.40;;;;;;;13.92;63.55;99852.91;4954874;28;20199;-78
2022/05/01 08:15:46;;;;;;;21.55;16.67;;;;;;;14.15;62.83;99855.88;4955208;28;20210;-79
2022/05/01 08:21:07;;;;;;;15.75;12.95;;;;;;;14.04;62.79;99858.47;4954838;29;20554;-78
2022/05/01 08:23:36;;;;;;;14.68;13.18;;;;;;;14.00;63.16;99862.34;4955463;28;20214;-79
2022/05/01 08:26:03;;;;;;;13.55;12.13;;;;;;;14.10;62.58;99856.22;4954770;28;20274;-79
2022/05/01 08:28:34;;;;;;;12.50;11.20;;;;;;;14.06;63.28;99867.34;4953958;29;20211;-76
2022/05/01 08:31:01;;;;;;;13.65;12.25;;;;;;;13.75;64.15;99864.03;4938695;28;20204;-78
2022/05/01 08:33:28;;;;;;;13.75;12.20;;;;;;;13.62;65.00;99858.56;4941054;29;20686;-78
2022/05/01 08:35:55;;;;;;;14.18;12.32;;;;;;;13.68;64.94;99862.69;4954715;28;20203;-79
2022/05/01 08:38:22;;;;;;;13.70;11.00;;;;;;;13.70;64.75;99868.88;4955174;28;20196;-79
2022/05/01 08:41:08;;;;;;;13.27;11.48;;;;;;;14.14;62.22;99855.03;4955105;28;20265;-78
2022/05/01 08:43:36;;;;;;;11.82;10.63;;;;;;;13.80;63.20;99861.88;4954776;28;20281;-78
2022/05/01 08:46:20;;;;;;;14.43;10.77;;;;;;;13.95;62.38;99859.97;4946731;28;20215;-77
2022/05/01 08:48:55;;;;;;;13.45;12.05;;;;;;;14.27;61.77;99859.59;4935272;29;20212;-77
2022/05/01 08:51:22;;;;;;;18.35;11.15;;;;;;;13.90;62.85;99870.25;4954142;28;20227;-78
2022/05/01 08:53:50;;;;;;;16.77;11.00;;;;;;;13.56;64.81;99867.09;4954448;28;20199;-77
2022/05/01 08:56:19;;;;;;;17.73;10.77;;;;;;;13.95;62.81;99876.19;4954549;28;20195;-78
2022/05/01 08:58:47;;;;;;;13.23;11.82;;;;;;;13.98;62.39;99870.59;4954416;28;20208;-77
2022/05/01 09:01:15;;;;;;;15.93;10.10;;;;;;;13.90;63.40;99870.25;4954481;28;20202;-79
2022/05/01 09:03:45;;;;;;;12.02;10.35;;;;;;;14.11;62.76;99860.66;4953841;28;20206;-78
2022/05/01 09:06:12;;;;;;;12.43;10.20;;;;;;;14.58;60.22;99861.94;4953702;28;20198;-79
2022/05/01 09:08:39;;;;;;;12.77;10.27;;;;;;;14.69;59.67;99866.59;4953731;28;20240;-77
2022/05/01 09:13:48;;;;;;;13.60;10.50;;;;;;;14.78;58.00;99868.63;4954060;29;20190;-77
2022/05/01 09:16:14;;;;;;;11.82;10.70;;;;;;;14.73;59.06;99857.25;4955503;28;20208;-78
2022/05/01 09:18:46;;;;;;;15.55;10.93;;;;;;;15.66;55.23;99864.09;4955149;28;20564;-78
2022/05/01 09:21:13;;;;;;;12.70;11.40;;;;;;;15.52;54.93;99860.56;4953708;28;20278;-78
2022/05/01 09:23:41;;;;;;;12.45;11.15;;;;;;;15.12;56.17;99860.78;4954094;28;20200;-77
2022/05/01 09:26:09;;;;;;;13.10;10.88;;;;;;;15.22;56.33;99858.28;4948538;28;20205;-76
2022/05/01 09:28:37;;;;;;;12.40;11.10;;;;;;;15.63;54.85;99860.63;4956059;28;20251;-76
2022/05/01 09:31:05;;;;;;;11.95;10.70;;;;;;;15.14;56.31;99856.13;4953584;28;20658;-77
2022/05/01 09:33:31;;;;;;;11.23;9.60;;;;;;;15.28;55.87;99855.09;4952169;29;20196;-78
2022/05/01 09:35:58;;;;;;;10.25;9.20;;;;;;;16.03;53.66;99859.47;4954166;28;20594;-79
2022/05/01 09:38:26;;;;;;;15.02;9.98;;;;;;;16.03;53.10;99860.38;4952252;28;20229;-77
2022/05/01 09:40:55;;;;;;;11.82;10.45;;;;;;;16.21;52.38;99863.50;4953770;28;20259;-77
2022/05/01 09:43:36;;;;;;;15.05;10.80;;;;;;;16.19;52.86;99860.06;4955435;28;20201;-77
2022/05/01 09:46:18;;;;;;;14.00;11.00;;;;;;;16.37;52.84;99856.84;4954733;28;20208;-76
2022/05/01 09:48:58;;;;;;;16.77;11.20;;;;;;;17.30;49.77;99857.56;4952784;28;20241;-75
2022/05/01 09:51:26;;;;;;;11.57;10.23;;;;;;;17.26;48.55;99855.22;4961969;28;20198;-76
2022/05/01 09:53:53;;;;;;;11.35;9.80;;;;;;;17.15;49.60;99849.81;4973482;28;20650;-76
2022/05/01 09:56:19;;;;;;;19.73;9.90;;;;;;;17.00;49.28;99847.31;4953946;28;20197;-77
2022/05/01 09:58:46;;;;;;;13.32;9.90;;;;;;;16.34;51.26;99846.25;4954290;28;20215;-77
2022/05/01 10:01:14;;;;;;;11.63;9.65;;;;;;;16.49;51.27;99852.34;4955933;28;20620;-77
2022/05/01 10:03:45;;;;;;;11.43;9.40;;;;;;;17.20;48.98;99851.13;4952257;28;20559;-77
2022/05/01 10:06:13;;;;;;;10.75;9.65;;;;;;;16.97;49.90;99844.00;4950817;28;20204;-78
2022/05/01 10:08:42;;;;;;;12.13;9.80;;;;;;;17.72;47.43;99846.81;4953278;29;20221;-78
2022/05/01 10:11:10;;;;;;;11.18;9.35;;;;;;;18.10;46.67;99834.56;4954532;28;20661;-79
2022/05/01 10:13:37;;;;;;;9.70;8.70;;;;;;;17.84;46.83;99844.97;4952833;28;20584;-79
2022/05/01 10:16:08;;;;;;;15.88;10.20;;;;;;;17.69;47.53;99838.91;4953871;28;20202;-79
2022/05/01 10:18:35;;;;;;;11.15;10.10;;;;;;;17.36;48.55;99836.28;4952818;28;20233;-78
2022/05/01 10:21:04;;;;;;;14.75;9.50;;;;;;;17.86;47.39;99834.81;4952671;28;20210;-77
2022/05/01 10:23:31;;;;;;;11.65;9.82;;;;;;;17.05;49.58;99830.66;4948475;29;20200;-77
2022/05/01 10:26:03;;;;;;;12.07;10.73;;;;;;;17.50;48.19;99826.00;4953051;28;20187;-78
2022/05/01 10:28:58;;;;;;;11.02;9.93;;;;;;;16.97;49.69;99822.25;4942464;28;20215;-77
2022/05/01 10:34:43;;;;;;;14.00;10.90;;;;;;;16.30;52.80;99821.16;4951609;29;20302;-78
2022/05/01 10:37:33;;;;;;;11.20;9.15;;;;;;;16.99;50.60;99822.97;4956345;28;20593;-78
2022/05/01 10:40:02;;;;;;;12.07;10.00;;;;;;;17.77;48.82;99812.88;4958311;28;20194;-78
2022/05/01 10:42:33;;;;;;;13.40;10.00;;;;;;;18.72;45.86;99804.66;4957548;28;20201;-77
2022/05/01 10:45:00;;;;;;;10.50;9.50;;;;;;;18.18;47.47;99811.22;4957103;28;20649;-77
2022/05/01 10:47:37;;;;;;;11.63;10.25;;;;;;;18.72;46.40;99800.09;4957553;28;20206;-77
2022/05/01 10:50:08;;;;;;;11.13;9.95;;;;;;;17.92;47.57;99796.13;4957242;28;20293;-78
2022/05/01 10:53:02;;;;;;;13.60;9.52;;;;;;;17.84;48.47;99803.22;4957765;28;20201;-77
2022/05/01 10:55:42;;;;;;;10.38;9.27;;;;;;;17.92;48.53;99795.28;4955912;28;20198;-78
2022/05/01 10:58:22;;;;;;;11.07;9.90;;;;;;;17.92;48.50;99798.00;4955618;28;20202;-78
2022/05/01 11:00:49;;;;;;;10.38;9.25;;;;;;;17.33;50.37;99804.75;4956370;28;20616;-77
2022/05/01 11:03:24;;;;;;;11.20;9.40;;;;;;;18.29;47.69;99790.25;4955820;28;20222;-78
2022/05/01 11:05:55;;;;;;;14.23;9.25;;;;;;;18.63;46.58;99792.75;4956468;28;20187;-78
2022/05/01 11:08:25;;;;;;;12.45;9.90;;;;;;;18.95;45.64;99789.03;4955968;28;20250;-77
2022/05/01 11:10:54;;;;;;;12.00;9.90;;;;;;;18.62;46.40;99782.81;4955891;28;20195;-79
2022/05/01 11:13:22;;;;;;;11.52;10.43;;;;;;;19.25;44.77;99784.50;4955942;28;20196;-78
2022/05/01 11:15:51;;;;;;;9.57;8.57;;;;;;;19.45;44.35;99780.81;4954758;29;20303;-77
2022/05/01 11:18:28;;;;;;;10.38;9.38;;;;;;;18.26;46.89;99779.59;4936590;28;20235;-77
2022/05/01 11:21:36;;;;;;;12.13;9.60;;;;;;;18.15;47.39;99773.34;4936760;29;20192;-78
2022/05/01 11:24:05;;;;;;;10.90;9.02;;;;;;;18.73;46.68;99779.13;4927057;29;20207;-76
2022/05/01 11:26:32;;;;;;;12.27;9.93;;;;;;;19.52;44.71;99772.91;4955033;28;20196;-78
2022/05/01 11:29:10;;;;;;;10.73;9.13;;;;;;;19.83;43.95;99775.53;4954632;28;21245;-78
2022/05/01 11:31:51;;;;;;;9.60;8.45;;;;;;;20.05;42.89;99763.44;4954127;28;20191;-77
2022/05/01 11:34:39;;;;;;;9.68;8.48;;;;;;;19.85;43.02;99768.03;4955315;28;20203;-78
2022/05/01 11:37:08;;;;;;;11.93;10.10;;;;;;;19.87;43.45;99757.84;4952074;28;20209;-77
2022/05/01 11:40:20;;;;;;;10.20;9.18;;;;;;;18.36;46.86;99748.81;4955695;28;20774;-76
2022/05/01 11:42:49;;;;;;;10.45;9.25;;;;;;;18.36;47.75;99746.97;4955173;28;20189;-77
2022/05/01 11:45:18;;;;;;;9.77;8.77;;;;;;;19.16;45.83;99745.25;4953978;28;20554;-78
2022/05/01 11:47:49;;;;;;;10.95;9.45;;;;;;;18.61;46.77;99748.38;4950397;29;20210;-77
2022/05/01 11:50:24;;;;;;;11.38;9.90;;;;;;;18.66;47.23;99745.22;4939098;28;20214;-76
2022/05/01 11:52:53;;;;;;;13.43;8.90;;;;;;;18.79;46.77;99742.28;4938968;29;20250;-77
2022/05/01 11:55:20;;;;;;;9.40;8.50;;;;;;;19.05;45.70;99737.19;4953846;28;20654;-78
2022/05/01 12:03:30;;;;;;;12.67;9.83;;;;;;;19.89;44.17;99737.56;4954193;29;20467;-77